Flight Track Log - Related Links

Times and Time Zones

All times are in EST time to prevent confusion due to time zone crossing. See the AAR8733 flight status page for this flight to view local times or setup timezone preferences in your user account.


Time Position Orientation Groundspeed Altitude Reporting Facility
EST Latitude Longitude Course Direction KTS MPH feet Rate Location/Type
Fri 08:01:00 PM 37.3380 126.8286 165° South  Level Estimated
Fri 08:02:00 PM 37.2557 126.8554 165° South  Level Estimated
Fri 08:03:00 PM 37.1734 126.8821 166° South  Level Estimated
Fri 08:04:00 PM 37.0911 126.9087 166° South  Level Estimated
Fri 08:05:00 PM 37.0088 126.9353 166° South  Level Estimated
Fri 08:06:00 PM 36.9265 126.9618 166° South  Level Estimated
Fri 08:07:00 PM 36.8442 126.9883 166° South  Level Estimated
Fri 08:08:00 PM 36.7618 127.0147 166° South  Level Estimated
Fri 08:09:00 PM 36.6795 127.0410 166° South  Level Estimated
Fri 08:10:00 PM 36.5972 127.0673 166° South  Level Estimated
Fri 08:11:00 PM 36.5148 127.0936 166° South  Level Estimated
Fri 08:12:00 PM 36.4325 127.1198 166° South  Level Estimated
Fri 08:13:00 PM 36.3502 127.1459 166° South  Level Estimated
Fri 08:14:00 PM 36.2678 127.1720 166° South  Level Estimated
Fri 08:15:00 PM 36.1854 127.1980 166° South  Level Estimated
Fri 08:16:00 PM 36.1031 127.2240 166° South  Level Estimated
Fri 08:17:00 PM 36.0207 127.2499 166° South  Level Estimated
Fri 08:18:00 PM 35.9383 127.2757 166° South  Level Estimated
Fri 08:19:00 PM 35.8559 127.3015 166° South  Level Estimated
Fri 08:20:00 PM 35.7735 127.3273 166° South  Level Estimated
Fri 08:21:00 PM 35.6912 127.3530 166° South  Level Estimated
Fri 08:22:00 PM 35.6087 127.3786 166° South  Level Estimated
Fri 08:23:00 PM 35.5263 127.4042 166° South  Level Estimated
Fri 08:24:00 PM 35.4439 127.4297 166° South  Level Estimated
Fri 08:25:00 PM 35.3615 127.4552 166° South  Level Estimated
Fri 08:26:00 PM 35.2791 127.4807 166° South  Level Estimated
Fri 08:27:00 PM 35.1967 127.5061 166° South  Level Estimated
Fri 08:28:00 PM 35.1142 127.5314 166° South  Level Estimated
Fri 08:29:00 PM 35.0318 127.5567 166° South  Level Estimated
Fri 08:30:00 PM 34.9493 127.5819 166° South  Level Estimated
Fri 08:31:00 PM 34.8669 127.6071 166° South  Level Estimated
Fri 08:32:00 PM 34.8398 127.6153 166° South  Level Estimated
Fri 08:33:00 PM 34.8398 127.6153 180° South  Level Estimated
Fri 08:34:00 PM 34.8398 127.6153 180° South  Level Estimated
Fri 08:35:00 PM 34.8398 127.6153 180° South  Level Estimated
Fri 08:36:00 PM 34.8398 127.6153 180° South  Level Estimated
Fri 08:37:00 PM 34.8398 127.6153 180° South  Level Estimated
Fri 08:38:00 PM 34.8398 127.6153 180° South  Level Estimated

Login

Don't have an account? Register now (free) for customized features, flight alerts, and more!